Time;durP1;ratioP1;P1;durP2;ratioP2;P2;SDS_P1;SDS_P2;PMS_P1;PMS_P2;Temp;Humidity;BMP_temperature;BMP_pressure;BME280_temperature;BME280_humidity;BME280_pressure;Samples;Min_cycle;Max_cycle;Signal;HPM_P1;HPM_P2
2023/07/13 00:01:50;;;;;;;3.88;2.75;;;23.10;56.90;;;;;;6108913;23;114823;-77
2023/07/13 00:04:18;;;;;;;4.35;2.90;;;22.90;57.20;;;;;;6110302;23;114490;-77
2023/07/13 00:06:46;;;;;;;4.13;2.58;;;22.90;57.50;;;;;;6110837;23;114164;-77
2023/07/13 00:09:14;;;;;;;5.30;2.58;;;23.00;57.30;;;;;;6110910;22;114317;-77
2023/07/13 00:11:41;;;;;;;5.70;2.50;;;23.10;56.60;;;;;;6109550;23;114911;-78
2023/07/13 00:14:09;;;;;;;5.15;3.13;;;23.40;56.10;;;;;;6109981;23;114905;-77
2023/07/13 00:16:37;;;;;;;4.45;2.55;;;23.70;56.20;;;;;;6134167;22;114128;-78
2023/07/13 00:19:06;;;;;;;4.25;2.67;;;23.70;55.10;;;;;;6109440;23;114188;-77
2023/07/13 00:21:33;;;;;;;4.85;2.53;;;23.80;54.70;;;;;;6109728;23;114901;-77
2023/07/13 00:24:01;;;;;;;4.85;3.03;;;24.00;54.50;;;;;;6108550;23;115140;-77
2023/07/13 00:26:29;;;;;;;5.43;2.75;;;24.10;54.40;;;;;;6110942;23;114382;-78
2023/07/13 00:28:56;;;;;;;4.30;2.50;;;24.30;53.90;;;;;;6111782;23;113985;-78
2023/07/13 00:31:23;;;;;;;4.25;2.58;;;24.30;53.60;;;;;;6108688;23;115592;-77
2023/07/13 00:33:51;;;;;;;5.90;3.33;;;24.50;53.50;;;;;;6108464;23;115919;-78
2023/07/13 00:36:22;;;;;;;5.97;2.55;;;24.60;54.20;;;;;;6110546;22;114134;-78
2023/07/13 00:38:49;;;;;;;7.10;2.95;;;24.50;53.20;;;;;;6109726;23;114325;-78
2023/07/13 00:41:17;;;;;;;4.05;2.40;;;24.60;53.60;;;;;;6084196;23;115385;-77
2023/07/13 00:43:44;;;;;;;4.40;2.55;;;24.60;53.00;;;;;;6108683;23;116183;-78
2023/07/13 00:46:20;;;;;;;5.68;3.00;;;24.60;53.20;;;;;;6109364;23;114472;-77
2023/07/13 00:48:48;;;;;;;4.47;2.70;;;24.60;53.30;;;;;;6134532;22;114356;-78
2023/07/13 00:51:30;;;;;;;5.05;2.63;;;24.60;53.00;;;;;;6060047;23;115959;-78
2023/07/13 00:53:58;;;;;;;4.07;2.70;;;24.70;52.90;;;;;;6109234;23;115234;-78
2023/07/13 00:56:26;;;;;;;5.47;2.75;;;24.70;52.80;;;;;;6109246;23;114354;-78
2023/07/13 00:58:53;;;;;;;4.82;3.42;;;24.70;52.70;;;;;;6110631;22;114045;-78
2023/07/13 01:01:21;;;;;;;4.38;2.47;;;24.80;53.30;;;;;;6109271;23;114896;-78
2023/07/13 01:03:48;;;;;;;5.05;3.20;;;24.70;52.40;;;;;;6108431;23;117160;-78
2023/07/13 01:06:17;;;;;;;5.13;2.50;;;24.80;52.70;;;;;;6111069;23;114122;-78
2023/07/13 01:08:44;;;;;;;4.65;3.30;;;24.80;52.30;;;;;;6109275;23;114254;-77
2023/07/13 01:11:12;;;;;;;3.70;2.45;;;24.80;52.70;;;;;;6109659;23;115378;-77
2023/07/13 01:13:40;;;;;;;5.82;2.33;;;24.90;52.10;;;;;;6083948;23;114597;-78
2023/07/13 01:16:17;;;;;;;5.63;2.72;;;24.90;52.10;;;;;;6110545;23;114098;-78
2023/07/13 01:18:44;;;;;;;7.82;3.42;;;25.00;52.00;;;;;;6109542;23;113986;-77
2023/07/13 01:21:11;;;;;;;3.72;2.50;;;24.90;52.60;;;;;;6109814;23;114963;-77
2023/07/13 01:23:39;;;;;;;3.28;2.30;;;24.90;52.20;;;;;;6132925;22;114657;-77
2023/07/13 01:26:06;;;;;;;5.57;2.92;;;24.90;52.10;;;;;;6109694;23;114321;-78
2023/07/13 01:28:37;;;;;;;7.60;3.58;;;24.90;52.40;;;;;;6133464;22;114234;-77
2023/07/13 01:31:08;;;;;;;6.55;3.35;;;24.90;52.50;;;;;;6107893;23;115998;-78
2023/07/13 01:33:37;;;;;;;6.03;3.10;;;24.80;53.30;;;;;;6132687;22;114584;-78
2023/07/13 01:36:06;;;;;;;5.53;3.00;;;24.80;53.10;;;;;;6108848;23;114103;-78
2023/07/13 01:38:34;;;;;;;5.85;3.10;;;24.80;52.70;;;;;;6108728;23;114903;-77
2023/07/13 01:41:02;;;;;;;5.32;2.80;;;24.80;52.70;;;;;;6132669;22;116324;-77
2023/07/13 01:43:30;;;;;;;4.82;3.05;;;24.80;52.30;;;;;;6059146;23;117731;-78
2023/07/13 01:45:57;;;;;;;4.20;2.60;;;24.80;52.50;;;;;;6108763;23;114282;-77
2023/07/13 01:48:44;;;;;;;5.50;3.20;;;24.90;52.10;;;;;;6133920;22;114514;-77
2023/07/13 01:51:15;;;;;;;5.07;2.70;;;24.80;52.40;;;;;;6108803;23;116204;-77
2023/07/13 01:53:43;;;;;;;5.70;3.72;;;24.80;52.70;;;;;;6108574;22;114990;-77
2023/07/13 01:56:10;;;;;;;6.97;4.05;;;24.70;53.70;;;;;;6084581;23;114524;-77
2023/07/13 01:58:38;;;;;;;5.25;3.55;;;24.50;53.80;;;;;;6084895;23;114277;-78
2023/07/13 02:01:05;;;;;;;5.47;3.22;;;24.40;53.40;;;;;;6107921;23;114957;-77
2023/07/13 02:03:33;;;;;;;5.18;3.47;;;24.50;53.30;;;;;;6109309;23;115118;-77
2023/07/13 02:06:00;;;;;;;6.18;4.13;;;24.50;53.60;;;;;;6110274;23;114167;-77
2023/07/13 02:08:27;;;;;;;6.63;3.17;;;24.40;53.70;;;;;;6110692;22;114128;-77
2023/07/13 02:10:54;;;;;;;5.22;3.30;;;24.50;53.30;;;;;;6107991;23;115227;-77
2023/07/13 02:13:22;;;;;;;5.72;4.20;;;24.50;53.40;;;;;;6083235;23;117342;-77
2023/07/13 02:15:51;;;;;;;4.97;3.60;;;24.50;53.30;;;;;;6133250;22;114266;-76
2023/07/13 02:18:19;;;;;;;5.63;3.50;;;24.60;53.30;;;;;;6110198;23;114258;-77
2023/07/13 02:20:46;;;;;;;5.88;3.20;;;24.60;53.10;;;;;;6107757;23;114927;-76
2023/07/13 02:23:13;;;;;;;6.88;3.67;;;24.60;52.90;;;;;;6107882;23;114941;-78
2023/07/13 02:25:40;;;;;;;5.05;3.55;;;24.60;53.10;;;;;;6108429;23;114080;-77
2023/07/13 02:28:08;;;;;;;5.13;3.80;;;24.60;53.20;;;;;;6110065;22;114160;-77
2023/07/13 02:30:35;;;;;;;5.72;4.93;;;24.50;53.40;;;;;;6109137;23;114829;-77
2023/07/13 02:33:04;;;;;;;5.72;3.53;;;24.50;53.70;;;;;;6108280;23;114512;-77
2023/07/13 02:35:31;;;;;;;7.88;3.67;;;24.60;53.10;;;;;;6108381;23;114230;-77
2023/07/13 02:37:58;;;;;;;4.72;3.08;;;24.60;53.00;;;;;;6084159;23;114218;-76
2023/07/13 02:40:27;;;;;;;8.75;5.85;;;24.70;52.80;;;;;;6108488;23;114881;-78
2023/07/13 02:42:54;;;;;;;7.28;4.70;;;24.70;53.60;;;;;;6109307;23;114543;-76
2023/07/13 02:45:21;;;;;;;5.63;4.15;;;24.60;53.30;;;;;;6109961;23;114250;-76
2023/07/13 02:47:48;;;;;;;8.55;5.75;;;24.50;53.40;;;;;;6110159;23;114317;-76
2023/07/13 02:50:17;;;;;;;6.13;3.92;;;24.50;53.80;;;;;;6083329;23;114768;-76
2023/07/13 02:52:46;;;;;;;8.18;4.40;;;24.50;53.30;;;;;;6107798;23;115719;-76
2023/07/13 02:55:13;;;;;;;7.70;4.90;;;24.50;53.50;;;;;;6085386;23;114323;-77
2023/07/13 02:57:41;;;;;;;7.00;4.25;;;24.60;53.60;;;;;;6085689;23;114203;-76
2023/07/13 03:00:08;;;;;;;9.63;5.90;;;24.60;53.10;;;;;;6133942;22;114948;-77
2023/07/13 03:02:36;;;;;;;6.78;4.10;;;24.60;53.80;;;;;;6108757;23;114622;-76
2023/07/13 03:05:04;;;;;;;6.10;3.92;;;24.70;53.20;;;;;;6134107;22;114092;-76
2023/07/13 03:07:32;;;;;;;7.05;4.10;;;24.70;52.90;;;;;;6085362;23;114087;-76
2023/07/13 03:10:00;;;;;;;8.00;4.30;;;24.70;53.10;;;;;;6133617;22;116061;-77
2023/07/13 03:12:38;;;;;;;4.53;3.60;;;24.70;52.80;;;;;;6134075;22;114529;-77
2023/07/13 03:15:11;;;;;;;8.05;4.70;;;24.80;52.70;;;;;;6109634;23;114293;-77
2023/07/13 03:17:41;;;;;;;5.75;4.20;;;24.80;53.10;;;;;;6111031;23;114163;-77
2023/07/13 03:20:09;;;;;;;6.72;4.60;;;24.80;53.00;;;;;;6133604;22;114887;-77
2023/07/13 03:22:36;;;;;;;7.38;4.40;;;24.80;52.80;;;;;;6109199;23;117861;-77
2023/07/13 03:25:05;;;;;;;5.60;4.32;;;24.70;52.90;;;;;;6085216;23;114294;-77
2023/07/13 03:27:32;;;;;;;7.25;5.38;;;24.80;53.10;;;;;;6109750;22;114029;-77
2023/07/13 03:30:00;;;;;;;6.25;4.20;;;24.80;52.90;;;;;;6131792;22;115812;-77
2023/07/13 03:32:27;;;;;;;6.05;4.15;;;24.90;52.50;;;;;;6108927;23;115910;-77
2023/07/13 03:34:55;;;;;;;6.28;4.28;;;24.90;52.30;;;;;;6111739;22;114171;-78
2023/07/13 03:37:23;;;;;;;6.47;4.75;;;24.90;52.20;;;;;;6135381;22;114039;-78
2023/07/13 03:39:51;;;;;;;7.65;5.25;;;24.90;52.70;;;;;;6109592;23;116799;-78
2023/07/13 03:42:22;;;;;;;6.88;4.18;;;24.90;52.60;;;;;;6135429;22;114147;-77
2023/07/13 03:44:52;;;;;;;6.25;3.88;;;24.80;52.90;;;;;;6110307;23;114363;-78
2023/07/13 03:47:19;;;;;;;8.20;4.45;;;24.60;53.30;;;;;;6135448;22;114184;-78
2023/07/13 03:49:47;;;;;;;7.13;4.28;;;24.30;54.00;;;;;;6134420;22;114891;-77
2023/07/13 03:52:14;;;;;;;9.07;6.53;;;24.20;54.40;;;;;;6110381;22;114474;-77
2023/07/13 03:54:41;;;;;;;7.78;4.28;;;24.10;54.50;;;;;;6134810;22;114312;-77
2023/07/13 03:57:09;;;;;;;5.88;3.75;;;24.10;54.80;;;;;;6110666;23;114363;-77
2023/07/13 03:59:36;;;;;;;6.03;4.03;;;24.20;54.20;;;;;;6134278;22;115213;-78
2023/07/13 04:02:05;;;;;;;6.50;4.55;;;24.30;53.90;;;;;;6134046;22;115267;-77
2023/07/13 04:04:33;;;;;;;8.52;5.82;;;24.40;53.50;;;;;;6111072;23;114250;-78
2023/07/13 04:07:01;;;;;;;8.32;5.70;;;24.50;53.50;;;;;;6111570;22;114354;-77
2023/07/13 04:09:28;;;;;;;7.45;5.55;;;24.60;53.50;;;;;;6109276;23;116382;-78
2023/07/13 04:11:56;;;;;;;7.72;5.68;;;24.60;53.20;;;;;;6109905;23;115116;-77
2023/07/13 04:14:23;;;;;;;10.23;6.80;;;24.70;53.10;;;;;;6111345;23;114171;-79
2023/07/13 04:16:51;;;;;;;7.28;5.53;;;24.80;53.20;;;;;;6110040;23;114280;-77
2023/07/13 04:19:18;;;;;;;15.40;6.88;;;24.80;52.70;;;;;;6109919;23;114810;-77
2023/07/13 04:21:48;;;;;;;8.10;5.70;;;24.80;53.90;;;;;;6085012;23;117751;-77
2023/07/13 04:24:16;;;;;;;10.07;6.28;;;24.80;52.80;;;;;;6110379;23;114312;-77
2023/07/13 04:26:45;;;;;;;7.22;4.95;;;24.80;52.80;;;;;;6110036;23;114170;-78
2023/07/13 04:29:12;;;;;;;7.68;5.30;;;24.90;53.10;;;;;;6110316;23;114910;-77
2023/07/13 04:31:39;;;;;;;8.15;5.25;;;24.80;53.20;;;;;;6134245;22;114534;-77
2023/07/13 04:34:06;;;;;;;7.05;5.13;;;24.70;53.30;;;;;;6111088;22;114194;-77
2023/07/13 04:36:37;;;;;;;8.55;4.95;;;24.70;53.30;;;;;;6085906;23;114303;-77
2023/07/13 04:39:04;;;;;;;5.88;4.78;;;24.80;53.10;;;;;;6110216;23;114864;-77
2023/07/13 04:41:31;;;;;;;7.97;5.65;;;24.80;53.00;;;;;;6110434;23;114649;-77
2023/07/13 04:43:59;;;;;;;7.15;4.60;;;24.70;54.40;;;;;;6110777;23;114108;-77
2023/07/13 04:46:26;;;;;;;7.13;4.80;;;24.70;53.10;;;;;;6110725;23;114196;-78
2023/07/13 04:48:54;;;;;;;8.85;4.85;;;24.80;53.10;;;;;;6110109;23;116645;-78
2023/07/13 04:51:21;;;;;;;7.93;5.00;;;24.80;52.70;;;;;;6108833;23;116001;-78
2023/07/13 04:53:48;;;;;;;6.40;4.95;;;24.80;52.90;;;;;;6111237;23;114284;-78
2023/07/13 04:56:21;;;;;;;8.63;4.50;;;24.90;54.10;;;;;;6110268;23;114090;-78
2023/07/13 04:58:48;;;;;;;10.20;5.20;;;24.80;53.10;;;;;;6109004;23;114591;-78
2023/07/13 05:01:15;;;;;;;6.07;4.57;;;24.90;53.50;;;;;;6109289;23;114604;-77
2023/07/13 05:03:42;;;;;;;7.20;4.60;;;25.00;52.90;;;;;;6085130;23;114109;-77
2023/07/13 05:06:10;;;;;;;5.40;4.45;;;25.00;52.50;;;;;;6084901;23;114260;-77
2023/07/13 05:08:37;;;;;;;5.63;4.32;;;25.20;52.30;;;;;;6109402;23;114803;-77
2023/07/13 05:11:05;;;;;;;5.65;4.43;;;25.30;51.80;;;;;;6108296;23;117488;-77
2023/07/13 05:13:32;;;;;;;6.93;4.80;;;25.40;51.70;;;;;;6085113;23;114000;-77
2023/07/13 05:16:02;;;;;;;7.25;4.63;;;25.60;51.80;;;;;;6110673;23;114191;-76
2023/07/13 05:18:30;;;;;;;7.22;4.93;;;25.70;51.00;;;;;;6107991;23;115327;-77
2023/07/13 05:20:59;;;;;;;7.63;4.75;;;25.80;52.20;;;;;;6110258;23;114643;-77
2023/07/13 05:23:26;;;;;;;5.15;3.85;;;25.80;51.70;;;;;;6109511;23;114437;-77
2023/07/13 05:25:54;;;;;;;6.18;4.72;;;25.90;51.50;;;;;;6110021;22;114229;-77
2023/07/13 05:28:21;;;;;;;8.32;4.25;;;25.90;51.10;;;;;;6083503;23;114873;-78
2023/07/13 05:30:49;;;;;;;9.65;5.90;;;25.90;50.60;;;;;;6110189;22;114561;-77
2023/07/13 05:33:16;;;;;;;7.38;4.70;;;26.00;52.20;;;;;;6108332;23;114042;-78
2023/07/13 05:35:43;;;;;;;11.85;6.78;;;25.90;51.20;;;;;;6084340;23;114216;-78
2023/07/13 05:38:10;;;;;;;12.55;7.95;;;25.90;52.10;;;;;;6107252;23;115326;-78
2023/07/13 05:40:37;;;;;;;11.80;7.45;;;25.90;52.40;;;;;;6108482;23;114576;-77
2023/07/13 05:43:04;;;;;;;10.98;6.93;;;25.90;52.40;;;;;;6109231;23;114140;-77
2023/07/13 05:45:32;;;;;;;16.23;9.18;;;25.90;51.70;;;;;;6110553;23;114404;-77
2023/07/13 05:47:59;;;;;;;10.27;6.75;;;25.90;52.90;;;;;;6108195;23;115272;-77
2023/07/13 05:50:27;;;;;;;15.15;8.07;;;26.00;51.70;;;;;;6111795;23;114530;-77
2023/07/13 05:52:54;;;;;;;9.85;6.60;;;26.00;51.90;;;;;;6110703;23;114183;-75
2023/07/13 05:55:21;;;;;;;8.13;5.70;;;26.10;51.50;;;;;;6109281;23;114102;-76
2023/07/13 05:57:48;;;;;;;7.13;5.25;;;26.10;51.00;;;;;;6107562;23;114977;-77
2023/07/13 06:00:16;;;;;;;10.30;6.55;;;26.10;50.50;;;;;;6109674;23;114687;-77
2023/07/13 06:02:43;;;;;;;10.20;6.95;;;26.20;52.00;;;;;;6110357;23;114148;-77
2023/07/13 06:05:10;;;;;;;9.40;6.22;;;26.20;52.60;;;;;;6110590;22;114841;-77
2023/07/13 06:07:38;;;;;;;11.10;5.68;;;26.20;51.60;;;;;;6109809;22;116125;-77
2023/07/13 06:10:05;;;;;;;10.02;7.28;;;26.20;51.30;;;;;;6110062;23;114589;-77
2023/07/13 06:12:32;;;;;;;6.50;5.20;;;26.30;53.50;;;;;;6084745;23;114287;-79
2023/07/13 06:15:00;;;;;;;10.05;6.70;;;26.30;50.90;;;;;;6134676;22;114092;-77
2023/07/13 06:17:29;;;;;;;8.85;5.65;;;26.30;53.50;;;;;;6108045;23;116403;-77
2023/07/13 06:19:57;;;;;;;11.43;6.40;;;26.30;52.10;;;;;;6110001;22;115050;-77
2023/07/13 06:22:24;;;;;;;11.25;6.53;;;26.30;53.90;;;;;;6110237;23;114000;-78
2023/07/13 06:24:52;;;;;;;13.90;7.43;;;26.30;53.40;;;;;;6110457;23;114167;-77
2023/07/13 06:27:19;;;;;;;8.70;5.30;;;26.20;53.40;;;;;;6083129;23;116917;-77
2023/07/13 06:29:46;;;;;;;9.38;5.82;;;26.20;51.50;;;;;;6107906;23;115417;-78
2023/07/13 06:32:14;;;;;;;11.82;6.28;;;26.10;52.50;;;;;;6084534;23;114307;-77
2023/07/13 06:34:41;;;;;;;10.77;6.32;;;26.10;52.30;;;;;;6110250;23;114066;-78
2023/07/13 06:37:09;;;;;;;10.77;6.70;;;26.10;52.00;;;;;;6109488;22;114894;-77
2023/07/13 06:39:36;;;;;;;7.63;5.22;;;26.20;52.50;;;;;;6109465;22;117159;-78
2023/07/13 06:42:04;;;;;;;9.63;6.20;;;26.10;51.90;;;;;;6084280;23;114378;-78
2023/07/13 06:44:32;;;;;;;9.40;5.93;;;26.20;52.30;;;;;;6109011;23;114020;-78
2023/07/13 06:47:00;;;;;;;8.77;6.03;;;26.20;51.60;;;;;;6108995;23;115156;-78
2023/07/13 06:49:28;;;;;;;7.75;5.45;;;26.20;52.00;;;;;;6109517;23;114505;-78
2023/07/13 06:51:56;;;;;;;10.43;5.93;;;26.10;51.50;;;;;;6109166;23;114284;-79
2023/07/13 06:54:23;;;;;;;11.40;6.68;;;26.10;52.10;;;;;;6108740;23;114462;-77
2023/07/13 06:56:50;;;;;;;11.57;7.53;;;26.10;52.60;;;;;;6107950;23;116045;-77
2023/07/13 06:59:18;;;;;;;9.63;5.53;;;26.00;53.90;;;;;;6107912;23;115059;-78
2023/07/13 07:01:46;;;;;;;10.20;6.32;;;26.10;52.50;;;;;;6108742;23;114083;-77
2023/07/13 07:04:13;;;;;;;8.52;6.30;;;26.10;53.70;;;;;;6110568;23;114263;-78
2023/07/13 07:06:40;;;;;;;9.52;5.55;;;26.00;52.70;;;;;;6109292;23;116784;-77
2023/07/13 07:09:08;;;;;;;7.70;5.20;;;25.90;51.90;;;;;;6108953;23;114640;-78
2023/07/13 07:11:36;;;;;;;8.50;6.03;;;26.00;51.50;;;;;;6083693;23;114034;-78
2023/07/13 07:14:04;;;;;;;10.25;6.38;;;26.00;52.60;;;;;;6109707;22;114199;-76
2023/07/13 07:16:32;;;;;;;9.48;6.35;;;26.00;52.60;;;;;;6108918;22;116284;-78
2023/07/13 07:19:01;;;;;;;9.35;6.00;;;26.00;53.80;;;;;;6106570;23;118911;-77
2023/07/13 07:21:28;;;;;;;9.23;6.05;;;26.00;54.10;;;;;;6109624;23;114055;-77
2023/07/13 07:23:55;;;;;;;9.48;6.30;;;25.80;53.60;;;;;;6109802;23;114064;-77
2023/07/13 07:26:22;;;;;;;8.43;6.38;;;25.80;54.30;;;;;;6108961;23;115011;-77
2023/07/13 07:28:54;;;;;;;10.60;7.07;;;25.70;53.90;;;;;;6109211;23;115628;-77
2023/07/13 07:31:41;;;;;;;9.25;6.88;;;25.70;54.30;;;;;;6132930;22;114396;-78
2023/07/13 07:34:11;;;;;;;7.53;5.97;;;25.50;54.60;;;;;;6108040;23;114425;-78
2023/07/13 07:36:38;;;;;;;9.18;5.63;;;25.40;53.60;;;;;;6131488;22;115013;-78
2023/07/13 07:39:09;;;;;;;10.45;7.20;;;25.40;53.50;;;;;;6107253;23;114621;-77
2023/07/13 07:41:36;;;;;;;8.68;6.30;;;25.50;54.70;;;;;;6110885;23;114070;-78
2023/07/13 07:44:07;;;;;;;11.40;7.07;;;25.60;54.50;;;;;;6110875;23;114284;-76
2023/07/13 07:46:34;;;;;;;9.68;6.53;;;25.50;55.00;;;;;;6109996;23;115260;-77
2023/07/13 07:49:01;;;;;;;9.77;7.10;;;25.60;54.50;;;;;;6108782;23;115885;-77
2023/07/13 07:51:28;;;;;;;10.00;6.68;;;25.70;54.60;;;;;;6110882;23;114299;-76
2023/07/13 07:53:56;;;;;;;8.80;6.03;;;25.70;53.60;;;;;;6109931;23;114449;-77
2023/07/13 07:56:24;;;;;;;10.13;6.38;;;25.80;53.00;;;;;;6110121;23;114915;-78
2023/07/13 07:58:54;;;;;;;9.40;7.32;;;25.80;52.90;;;;;;6109866;23;115616;-77
2023/07/13 08:01:24;;;;;;;9.38;7.28;;;25.90;53.40;;;;;;6110440;23;113988;-78
2023/07/13 08:03:55;;;;;;;7.85;6.20;;;25.80;54.20;;;;;;6111232;23;114310;-77
2023/07/13 08:06:25;;;;;;;7.50;5.68;;;25.80;52.60;;;;;;6110909;22;115329;-76
2023/07/13 08:09:11;;;;;;;9.50;7.00;;;25.80;52.60;;;;;;6109139;23;117254;-77
2023/07/13 08:11:38;;;;;;;8.90;6.03;;;25.80;53.20;;;;;;6111121;23;114335;-78
2023/07/13 08:14:09;;;;;;;9.93;6.60;;;25.70;52.60;;;;;;6109972;23;114112;-77
2023/07/13 08:16:36;;;;;;;7.28;5.40;;;25.80;53.70;;;;;;6110208;23;114853;-78
2023/07/13 08:19:04;;;;;;;8.48;5.50;;;25.70;52.60;;;;;;6109032;23;114884;-76
2023/07/13 08:21:32;;;;;;;10.32;6.38;;;25.70;52.60;;;;;;6109660;23;114182;-78
2023/07/13 08:23:59;;;;;;;9.00;6.05;;;25.70;53.50;;;;;;6109275;23;114317;-77
2023/07/13 08:26:26;;;;;;;11.73;6.60;;;25.70;52.50;;;;;;6109340;22;116128;-77
2023/07/13 08:28:53;;;;;;;7.90;5.78;;;25.70;54.40;;;;;;6109909;23;117032;-79
2023/07/13 08:31:20;;;;;;;10.65;6.22;;;25.60;52.90;;;;;;6109512;23;114199;-78
2023/07/13 08:33:47;;;;;;;14.60;8.05;;;25.50;53.40;;;;;;6110291;23;114170;-78
2023/07/13 08:36:15;;;;;;;10.77;6.60;;;25.50;55.70;;;;;;6109843;23;114792;-77
2023/07/13 08:38:42;;;;;;;10.35;6.10;;;25.50;54.40;;;;;;6108406;23;114620;-77
2023/07/13 08:41:14;;;;;;;9.90;6.75;;;25.50;54.20;;;;;;6110632;23;113994;-78
2023/07/13 08:43:42;;;;;;;10.18;6.72;;;25.40;55.30;;;;;;6109927;23;114202;-77
2023/07/13 08:46:13;;;;;;;13.30;7.47;;;25.40;55.30;;;;;;6109690;23;115419;-77
2023/07/13 08:48:50;;;;;;;10.48;7.57;;;25.40;56.40;;;;;;6083729;23;115079;-77
2023/07/13 08:51:43;;;;;;;12.68;7.25;;;25.30;55.90;;;;;;6108764;23;114477;-78
2023/07/13 08:54:37;;;;;;;7.65;5.97;;;25.30;55.00;;;;;;6109213;23;114080;-78
2023/07/13 08:57:12;;;;;;;10.75;7.65;;;25.30;54.80;;;;;;6108155;23;115426;-77
2023/07/13 08:59:39;;;;;;;8.80;7.25;;;25.20;56.20;;;;;;6108500;23;114557;-78
2023/07/13 09:02:25;;;;;;;11.55;8.48;;;25.10;55.60;;;;;;6109206;23;114146;-78
2023/07/13 09:04:58;;;;;;;14.20;11.38;;;25.20;56.30;;;;;;6111070;23;114236;-77
2023/07/13 09:07:40;;;;;;;14.98;12.50;;;24.90;56.80;;;;;;6109481;23;114903;-77
2023/07/13 09:10:21;;;;;;;10.88;7.30;;;24.60;57.40;;;;;;6108725;23;114619;-78
2023/07/13 09:13:13;;;;;;;7.75;6.20;;;24.30;56.20;;;;;;6109079;23;114181;-78
2023/07/13 09:15:44;;;;;;;10.77;8.23;;;24.30;56.00;;;;;;6085064;23;114198;-77
2023/07/13 09:18:32;;;;;;;11.40;8.85;;;24.20;57.00;;;;;;6108862;22;116338;-78
2023/07/13 09:21:12;;;;;;;9.70;6.85;;;24.20;57.60;;;;;;6109450;23;116302;-77
2023/07/13 09:23:41;;;;;;;9.90;8.55;;;24.00;57.10;;;;;;6109069;23;114210;-77
2023/07/13 09:26:22;;;;;;;11.05;8.10;;;23.80;58.30;;;;;;6110916;23;114214;-77
2023/07/13 09:28:58;;;;;;;10.88;8.48;;;23.70;58.80;;;;;;6132562;22;116150;-77
2023/07/13 09:31:36;;;;;;;12.27;9.00;;;23.60;59.30;;;;;;6107890;23;114550;-77
2023/07/13 09:34:10;;;;;;;10.63;8.55;;;23.40;60.00;;;;;;6109204;22;114457;-77
2023/07/13 09:36:37;;;;;;;11.75;9.05;;;23.30;60.70;;;;;;6084919;23;114200;-76
2023/07/13 09:39:15;;;;;;;11.20;9.65;;;23.00;61.20;;;;;;6133100;22;114895;-78
2023/07/13 09:41:56;;;;;;;11.38;10.05;;;23.00;61.50;;;;;;6107806;23;114802;-78
2023/07/13 09:44:30;;;;;;;10.63;9.48;;;22.80;61.30;;;;;;6085636;23;114318;-78
2023/07/13 09:46:58;;;;;;;10.60;8.50;;;22.70;61.10;;;;;;6110497;22;114328;-77
2023/07/13 09:49:27;;;;;;;10.73;8.63;;;22.50;61.40;;;;;;6132826;22;114955;-78
2023/07/13 09:52:00;;;;;;;9.07;8.27;;;22.30;61.40;;;;;;6132834;22;114620;-78
2023/07/13 09:54:27;;;;;;;9.83;8.83;;;22.30;61.50;;;;;;6084585;23;114431;-77
2023/07/13 09:56:59;;;;;;;9.63;8.07;;;22.20;61.30;;;;;;6109265;22;114273;-76
2023/07/13 09:59:30;;;;;;;9.50;8.60;;;22.00;61.60;;;;;;6083275;23;118673;-76
2023/07/13 10:01:58;;;;;;;12.27;9.95;;;22.00;61.80;;;;;;6083872;23;114638;-77
2023/07/13 10:04:31;;;;;;;8.82;7.88;;;21.90;61.90;;;;;;6108646;23;114178;-78
2023/07/13 10:07:09;;;;;;;8.75;7.38;;;22.10;61.80;;;;;;6108877;23;114188;-78
2023/07/13 10:10:00;;;;;;;8.02;6.57;;;22.30;61.40;;;;;;6108126;23;115429;-78
2023/07/13 10:12:30;;;;;;;6.70;5.38;;;22.30;61.30;;;;;;6109504;22;115789;-77
2023/07/13 10:14:59;;;;;;;7.63;5.90;;;22.40;60.90;;;;;;6108816;23;114328;-78
2023/07/13 10:17:47;;;;;;;7.65;6.15;;;22.40;60.60;;;;;;6087677;23;114375;-77
2023/07/13 10:20:14;;;;;;;9.73;6.35;;;22.30;60.90;;;;;;6083264;23;117785;-77
2023/07/13 10:22:49;;;;;;;7.43;4.75;;;22.20;61.10;;;;;;6107779;23;115968;-77
2023/07/13 10:25:26;;;;;;;6.20;5.07;;;22.30;60.90;;;;;;6108860;23;114185;-76
2023/07/13 10:27:59;;;;;;;7.13;5.32;;;22.40;60.60;;;;;;6108618;23;114290;-77
2023/07/13 10:30:36;;;;;;;7.90;4.90;;;22.40;60.40;;;;;;6110549;22;115376;-77
2023/07/13 10:33:05;;;;;;;5.30;4.55;;;22.60;60.40;;;;;;6084310;23;116341;-77
2023/07/13 10:35:32;;;;;;;5.10;3.70;;;22.70;59.90;;;;;;6107681;23;114135;-77
2023/07/13 10:38:06;;;;;;;6.05;4.60;;;22.80;59.70;;;;;;6084154;23;114188;-77
2023/07/13 10:40:43;;;;;;;7.00;5.03;;;23.00;59.20;;;;;;6083450;23;117004;-79
2023/07/13 10:43:42;;;;;;;5.93;3.83;;;23.10;58.90;;;;;;6083727;23;114530;-77
2023/07/13 10:46:12;;;;;;;5.53;3.60;;;23.20;58.50;;;;;;6098016;23;114512;-77
2023/07/13 10:48:39;;;;;;;6.82;5.05;;;23.30;58.30;;;;;;6108380;23;114319;-77
2023/07/13 10:51:06;;;;;;;5.05;3.80;;;23.40;57.80;;;;;;6083277;23;114963;-77
2023/07/13 10:53:36;;;;;;;4.93;3.60;;;23.50;57.70;;;;;;6107800;23;114540;-78
2023/07/13 10:56:12;;;;;;;7.68;5.03;;;23.70;57.20;;;;;;6108405;23;114234;-77
2023/07/13 10:58:40;;;;;;;7.28;4.30;;;23.60;57.00;;;;;;6108275;23;114164;-77
2023/07/13 11:01:16;;;;;;;5.82;4.70;;;23.70;56.70;;;;;;6108229;23;114931;-77
2023/07/13 11:04:02;;;;;;;8.43;5.97;;;23.80;56.70;;;;;;6108859;23;114581;-78
2023/07/13 11:06:37;;;;;;;8.70;6.03;;;23.90;56.60;;;;;;6108180;23;114445;-78
2023/07/13 11:09:20;;;;;;;7.90;5.28;;;23.90;56.20;;;;;;6084313;23;114541;-77
2023/07/13 11:11:47;;;;;;;5.03;3.83;;;24.00;56.00;;;;;;6132206;22;116062;-77
2023/07/13 11:14:27;;;;;;;6.93;5.30;;;24.00;56.00;;;;;;6109158;23;114502;-78
2023/07/13 11:16:54;;;;;;;4.20;3.03;;;24.10;55.60;;;;;;6110848;23;114222;-77
2023/07/13 11:19:22;;;;;;;7.13;4.10;;;24.10;55.60;;;;;;6111594;23;114281;-78
2023/07/13 11:22:12;;;;;;;8.23;6.38;;;24.20;55.50;;;;;;6108664;23;114925;-78
2023/07/13 11:24:59;;;;;;;5.18;3.47;;;24.30;55.20;;;;;;6108996;22;115029;-78
2023/07/13 11:27:39;;;;;;;5.60;4.30;;;24.30;55.30;;;;;;6108727;23;114276;-77
2023/07/13 11:30:25;;;;;;;5.30;4.07;;;24.30;55.30;;;;;;6134222;22;114268;-77
2023/07/13 11:33:08;;;;;;;6.90;5.30;;;24.30;55.10;;;;;;6110001;23;115523;-77
2023/07/13 11:35:38;;;;;;;8.60;5.67;;;24.30;55.10;;;;;;6108860;23;114476;-77
2023/07/13 11:38:27;;;;;;;5.50;4.05;;;24.20;55.20;;;;;;6110987;23;114127;-77
2023/07/13 11:40:56;;;;;;;8.48;6.45;;;24.30;54.90;;;;;;6109408;23;114171;-78
2023/07/13 11:43:23;;;;;;;6.22;4.05;;;24.30;55.60;;;;;;6108584;23;114931;-77
2023/07/13 11:45:51;;;;;;;4.75;3.53;;;24.40;55.10;;;;;;6108999;23;114496;-78
2023/07/13 11:48:27;;;;;;;6.40;3.80;;;24.40;54.90;;;;;;6109579;23;114363;-77
2023/07/13 11:51:07;;;;;;;4.50;3.28;;;24.50;54.70;;;;;;6109542;23;114022;-78
2023/07/13 11:53:39;;;;;;;4.93;3.33;;;24.40;54.50;;;;;;6108014;23;114967;-77
2023/07/13 11:56:06;;;;;;;5.82;3.40;;;24.40;54.40;;;;;;6083839;23;116528;-77
2023/07/13 11:58:34;;;;;;;4.22;3.50;;;24.40;54.40;;;;;;6109459;23;114078;-76
2023/07/13 12:01:04;;;;;;;4.53;3.30;;;24.50;54.30;;;;;;6111023;23;113989;-78
2023/07/13 12:03:34;;;;;;;5.28;4.10;;;24.60;54.10;;;;;;6108563;23;116681;-78
2023/07/13 12:06:07;;;;;;;5.25;3.80;;;24.70;54.40;;;;;;6108733;23;114679;-77
2023/07/13 12:08:39;;;;;;;5.53;3.47;;;24.70;53.90;;;;;;6109308;23;114303;-77
2023/07/13 12:11:20;;;;;;;5.97;3.67;;;24.80;54.00;;;;;;6110225;23;114309;-77
2023/07/13 12:13:50;;;;;;;4.47;3.05;;;24.80;54.20;;;;;;6108678;22;116381;-77
2023/07/13 12:16:30;;;;;;;4.70;3.45;;;24.80;53.80;;;;;;6110078;23;114631;-77
2023/07/13 12:18:57;;;;;;;4.65;3.47;;;24.80;53.60;;;;;;6085124;23;114220;-77
2023/07/13 12:21:39;;;;;;;4.53;2.60;;;24.80;54.00;;;;;;6085183;23;114356;-76
2023/07/13 12:24:12;;;;;;;4.85;3.33;;;24.80;53.50;;;;;;6110066;23;114888;-77
2023/07/13 12:26:39;;;;;;;4.63;3.00;;;24.80;53.60;;;;;;6108376;23;114719;-77
2023/07/13 12:29:06;;;;;;;4.85;3.25;;;24.80;53.40;;;;;;6111216;23;114204;-77
2023/07/13 12:31:42;;;;;;;4.93;3.20;;;24.90;53.30;;;;;;6109641;23;114432;-77
2023/07/13 12:34:12;;;;;;;4.10;2.97;;;24.90;53.20;;;;;;6109593;23;114948;-77
2023/07/13 12:36:53;;;;;;;5.13;3.22;;;24.90;53.30;;;;;;6110898;23;114603;-76
2023/07/13 12:39:25;;;;;;;4.45;3.10;;;24.90;53.40;;;;;;6109827;23;113983;-77
2023/07/13 12:41:53;;;;;;;4.03;2.95;;;24.90;53.30;;;;;;6111067;23;114076;-77
2023/07/13 12:44:29;;;;;;;4.18;3.05;;;24.80;53.40;;;;;;6107947;23;115005;-77
2023/07/13 12:47:04;;;;;;;4.22;3.28;;;24.90;53.50;;;;;;6084220;23;114530;-77
2023/07/13 12:49:34;;;;;;;4.78;3.10;;;24.90;53.50;;;;;;6109463;23;114069;-77
2023/07/13 12:52:04;;;;;;;5.70;3.10;;;24.80;53.40;;;;;;6109724;23;114342;-77